Terminal Aerodrome Forecast
Issued by NWS

Home | Current Version | Previous Version | Text Only | Print | Product List | Glossary On
Versions: 1 2 3 4 5 6 7 8 9 10 11 12 13 14 15 16 17 18 19 20
000
FTUS46 KEKA 241740
TAFUKI
TAF
KUKI 241740Z 2418/2518 00000KT P6SM SCT120 BKN200
     FM242300 32007KT P6SM SCT060 BKN100 BKN200
     FM250300 00000KT P6SM SCT100 BKN250
     FM251200 00000KT 6SM BR SKC=

USA.gov is the U.S. government's official web portal to all federal, state and local government web resources and services.